Time;durP1;ratioP1;P1;durP2;ratioP2;P2;SDS_P1;SDS_P2;PMS_P1;PMS_P2;Temp;Humidity;BMP_temperature;BMP_pressure;BME280_temperature;BME280_humidity;BME280_pressure;Samples;Min_cycle;Max_cycle;Signal;HPM_P1;HPM_P2
2023/07/18 00:01:23;;;;;;;0.00;0.00;;;;;;;16.63;100.00;102061.06;5052685;28;20021;-49
2023/07/18 00:03:49;;;;;;;0.00;0.00;;;;;;;16.62;100.00;102060.22;5052742;28;20108;-47
2023/07/18 00:06:17;;;;;;;0.00;0.00;;;;;;;16.63;100.00;102056.44;5052356;28;20112;-46
2023/07/18 00:08:43;;;;;;;0.00;0.00;;;;;;;16.64;100.00;102057.28;5052518;28;20025;-47
2023/07/18 00:11:08;;;;;;;0.00;0.00;;;;;;;16.62;100.00;102053.94;5052877;28;20441;-49
2023/07/18 00:13:33;;;;;;;0.00;0.00;;;;;;;16.65;100.00;102053.56;5052621;28;20493;-48
2023/07/18 00:15:59;;;;;;;0.00;0.00;;;;;;;16.63;100.00;102048.28;5052473;28;20137;-49
2023/07/18 00:18:24;;;;;;;0.00;0.00;;;;;;;16.60;100.00;102051.41;5052431;28;20033;-49
2023/07/18 00:20:50;;;;;;;0.00;0.00;;;;;;;16.60;100.00;102053.28;5052101;28;20021;-48
2023/07/18 00:23:15;;;;;;;0.00;0.00;;;;;;;16.57;100.00;102048.25;5052310;28;20163;-47
2023/07/18 00:25:41;;;;;;;0.00;0.00;;;;;;;16.54;100.00;102046.75;5051263;28;20483;-45
2023/07/18 00:28:07;;;;;;;0.00;0.00;;;;;;;16.49;100.00;102049.19;5052395;28;20292;-47
2023/07/18 00:30:33;;;;;;;0.00;0.00;;;;;;;16.47;100.00;102045.81;5052718;28;20048;-51
2023/07/18 00:32:58;;;;;;;0.00;0.00;;;;;;;16.40;100.00;102056.63;5051975;28;20376;-46
2023/07/18 00:35:25;;;;;;;0.00;0.00;;;;;;;16.37;100.00;102046.13;5050645;28;20033;-51
2023/07/18 00:37:50;;;;;;;0.00;0.00;;;;;;;16.34;100.00;102046.50;5051608;28;20047;-48
2023/07/18 00:40:16;;;;;;;0.00;0.00;;;;;;;16.32;100.00;102054.00;5051635;28;20033;-48
2023/07/18 00:42:43;;;;;;;0.00;0.00;;;;;;;16.31;100.00;102051.50;5050272;28;20767;-47
2023/07/18 00:45:09;;;;;;;0.00;0.00;;;;;;;16.28;100.00;102052.72;5052045;28;20101;-49
2023/07/18 00:47:42;;;;;;;0.00;0.00;;;;;;;16.27;100.00;102064.59;5051653;28;20033;-47
2023/07/18 00:50:09;;;;;;;0.00;0.00;;;;;;;16.24;100.00;102054.09;5051617;28;20530;-48
2023/07/18 00:52:35;;;;;;;0.00;0.00;;;;;;;16.18;100.00;102060.31;5050609;28;20025;-46
2023/07/18 00:55:02;;;;;;;0.00;0.00;;;;;;;16.16;100.00;102056.94;5052524;28;20025;-45
2023/07/18 00:57:28;;;;;;;0.00;0.00;;;;;;;16.16;100.00;102059.66;5052599;28;20406;-47
2023/07/18 00:59:54;;;;;;;0.00;0.00;;;;;;;16.15;100.00;102063.41;5050997;28;20104;-47
2023/07/18 01:02:20;;;;;;;0.00;0.00;;;;;;;16.15;100.00;102068.84;5050453;28;20025;-47
2023/07/18 01:04:45;;;;;;;0.00;0.00;;;;;;;16.13;100.00;102060.88;5051366;28;20104;-48
2023/07/18 01:07:10;;;;;;;0.00;0.00;;;;;;;16.14;100.00;102053.56;5051342;28;20025;-48
2023/07/18 01:09:35;;;;;;;0.00;0.00;;;;;;;16.11;100.00;102045.78;5051170;28;20029;-49
2023/07/18 01:12:01;;;;;;;0.00;0.00;;;;;;;16.10;100.00;102044.13;5051203;28;20078;-51
2023/07/18 01:14:26;;;;;;;0.00;0.00;;;;;;;16.08;100.00;102044.28;5053392;28;20017;-46
2023/07/18 01:16:55;;;;;;;0.00;0.00;;;;;;;16.08;100.00;102049.72;5053595;28;20378;-47
2023/07/18 01:19:20;;;;;;;0.00;0.00;;;;;;;16.08;100.00;102043.47;5052102;28;20086;-45
2023/07/18 01:21:46;;;;;;;0.00;0.00;;;;;;;16.08;100.00;102048.88;5051066;28;20322;-47
2023/07/18 01:24:11;;;;;;;0.00;0.00;;;;;;;16.07;100.00;102047.22;5051085;28;20033;-46
2023/07/18 01:26:37;;;;;;;0.00;0.00;;;;;;;16.07;100.00;102044.50;5051574;28;20098;-47
2023/07/18 01:29:02;;;;;;;0.00;0.00;;;;;;;16.07;100.00;102044.50;5050169;28;20039;-46
2023/07/18 01:31:27;;;;;;;0.00;0.00;;;;;;;16.06;100.00;102046.38;5051152;28;20057;-45
2023/07/18 01:33:53;;;;;;;0.00;0.00;;;;;;;16.03;100.00;102044.00;5051128;28;20483;-47
2023/07/18 01:36:18;;;;;;;0.00;0.00;;;;;;;16.01;100.00;102040.69;5049861;28;20025;-49
2023/07/18 01:38:44;;;;;;;0.00;0.00;;;;;;;15.98;100.00;102031.03;5053088;28;20091;-47
2023/07/18 01:41:09;;;;;;;0.00;0.00;;;;;;;15.98;100.00;102028.31;5053458;28;20520;-44
2023/07/18 01:43:37;;;;;;;0.00;0.00;;;;;;;15.97;100.00;102034.75;5053136;28;20458;-48
2023/07/18 01:46:03;;;;;;;0.00;0.00;;;;;;;15.98;100.00;102031.03;5051008;28;20025;-46
2023/07/18 01:48:28;;;;;;;0.00;0.00;;;;;;;15.96;100.00;102022.22;5051354;28;20024;-44
2023/07/18 01:50:53;;;;;;;0.00;0.00;;;;;;;15.93;100.00;102019.88;5051871;28;20033;-47
2023/07/18 01:53:19;;;;;;;0.00;0.00;;;;;;;15.91;100.00;102021.94;5052080;28;20075;-48
2023/07/18 01:55:45;;;;;;;0.00;0.00;;;;;;;15.86;100.00;102018.94;5050915;28;20044;-49
2023/07/18 01:58:10;;;;;;;0.00;0.00;;;;;;;15.84;100.00;102014.75;5050496;28;20089;-48
2023/07/18 02:00:36;;;;;;;0.00;0.00;;;;;;;15.83;100.00;102023.94;5050750;28;20029;-47
2023/07/18 02:03:01;;;;;;;0.00;0.00;;;;;;;15.81;100.00;102024.09;5050781;28;20036;-45
2023/07/18 02:05:28;;;;;;;0.00;0.00;;;;;;;15.80;100.00;102017.84;5050822;28;20535;-44
2023/07/18 02:07:54;;;;;;;0.00;0.00;;;;;;;15.78;100.00;102024.47;5052691;28;20471;-46
2023/07/18 02:10:20;;;;;;;0.00;0.00;;;;;;;15.78;100.00;102024.47;5053136;28;20025;-46
2023/07/18 02:12:47;;;;;;;0.00;0.00;;;;;;;15.80;100.00;102022.44;5051633;28;20021;-45
2023/07/18 02:15:13;;;;;;;0.00;0.00;;;;;;;15.76;100.00;102019.22;5051220;28;20113;-45
2023/07/18 02:17:39;;;;;;;0.00;0.00;;;;;;;15.77;100.00;102022.78;5053257;28;20025;-47
2023/07/18 02:20:05;;;;;;;0.00;0.00;;;;;;;15.78;100.00;102013.63;5055050;28;20562;-48
2023/07/18 02:22:33;;;;;;;0.00;0.00;;;;;;;15.72;100.00;102007.09;5054754;28;20372;-48
2023/07/18 02:24:58;;;;;;;0.00;0.00;;;;;;;15.65;100.00;102007.97;5054197;28;20025;-46
2023/07/18 02:27:24;;;;;;;0.00;0.00;;;;;;;15.62;100.00;102008.34;5054214;28;20032;-47
2023/07/18 02:29:49;;;;;;;0.00;0.00;;;;;;;15.57;100.00;102012.47;5054208;28;20036;-45
2023/07/18 02:32:16;;;;;;;0.00;0.00;;;;;;;15.54;100.00;102012.84;5054797;28;20096;-47
2023/07/18 02:34:43;;;;;;;0.00;0.00;;;;;;;15.50;100.00;102016.94;5054225;28;20032;-45
2023/07/18 02:37:08;;;;;;;0.00;0.00;;;;;;;15.45;100.00;102022.06;5054352;28;20020;-48
2023/07/18 02:39:35;;;;;;;0.00;0.00;;;;;;;15.44;100.00;102014.97;5054812;28;20483;-46
2023/07/18 02:42:00;;;;;;;0.00;0.00;;;;;;;15.45;100.00;102007.69;5054144;28;20490;-48
2023/07/18 02:44:26;;;;;;;0.00;0.00;;;;;;;15.46;100.00;102020.22;5055851;28;20033;-44
2023/07/18 02:46:51;;;;;;;0.00;0.00;;;;;;;15.41;100.00;102018.06;5056277;28;20055;-47
2023/07/18 02:49:16;;;;;;;0.00;0.00;;;;;;;15.40;100.00;102019.06;5054340;28;20108;-46
2023/07/18 02:51:42;;;;;;;0.00;0.00;;;;;;;15.39;100.00;102011.97;5054062;28;20155;-45
2023/07/18 02:54:07;;;;;;;0.00;0.00;;;;;;;15.34;100.00;102012.53;5054231;28;20383;-46
2023/07/18 02:56:34;;;;;;;0.00;0.00;;;;;;;15.34;100.00;102017.13;5054458;28;20045;-46
2023/07/18 02:59:00;;;;;;;0.00;0.00;;;;;;;15.29;100.00;102016.81;5053892;28;20364;-44
2023/07/18 03:01:26;;;;;;;0.00;0.00;;;;;;;15.24;100.00;102016.53;5053772;28;20079;-46
2023/07/18 03:03:51;;;;;;;0.00;0.00;;;;;;;15.21;100.00;102022.31;5053905;28;20470;-46
2023/07/18 03:06:16;;;;;;;0.00;0.00;;;;;;;15.17;100.00;102018.31;5053661;28;20036;-46
2023/07/18 03:08:42;;;;;;;0.00;0.00;;;;;;;15.16;100.00;102020.16;5053735;28;20033;-44
2023/07/18 03:11:07;;;;;;;0.00;0.00;;;;;;;15.17;100.00;102012.88;5053697;28;20103;-45
2023/07/18 03:13:32;;;;;;;0.00;0.00;;;;;;;15.12;100.00;102008.84;5053381;28;20028;-47
2023/07/18 03:15:58;;;;;;;0.00;0.00;;;;;;;15.11;100.00;102006.31;5053725;28;20025;-49
2023/07/18 03:18:23;;;;;;;0.00;0.00;;;;;;;15.10;100.00;102000.03;5053433;28;20090;-45
2023/07/18 03:20:49;;;;;;;0.00;0.00;;;;;;;15.12;100.00;102003.41;5053209;28;20425;-47
2023/07/18 03:23:14;;;;;;;0.00;0.00;;;;;;;15.13;100.00;102005.09;5053144;28;20060;-48
2023/07/18 03:25:40;;;;;;;0.00;0.00;;;;;;;15.07;100.00;102005.84;5053115;28;20021;-46
2023/07/18 03:28:06;;;;;;;0.00;0.00;;;;;;;15.07;100.00;102005.00;5052260;28;20071;-46
2023/07/18 03:30:31;;;;;;;0.00;0.00;;;;;;;15.05;100.00;102001.63;5054600;28;20201;-46
2023/07/18 03:32:57;;;;;;;0.00;0.00;;;;;;;15.04;100.00;102010.78;5054195;28;20049;-47
2023/07/18 03:35:22;;;;;;;0.00;0.00;;;;;;;15.03;100.00;101998.25;5055019;28;20505;-46
2023/07/18 03:37:48;;;;;;;0.00;0.00;;;;;;;15.01;100.00;102014.72;5055451;28;20025;-46
2023/07/18 03:40:16;;;;;;;0.00;0.00;;;;;;;14.96;100.00;102019.00;5053526;28;20433;-47
2023/07/18 03:42:43;;;;;;;0.00;0.00;;;;;;;14.96;100.00;102016.28;5054194;28;20455;-46
2023/07/18 03:45:10;;;;;;;0.00;0.00;;;;;;;14.90;100.00;102007.88;5055472;28;20120;-47
2023/07/18 03:47:36;;;;;;;0.10;0.00;;;;;;;14.88;100.00;102007.19;5054823;28;20501;-46
2023/07/18 03:50:02;;;;;;;0.00;0.00;;;;;;;14.89;100.00;102003.44;5054126;28;20159;-47
2023/07/18 03:52:28;;;;;;;0.00;0.00;;;;;;;14.86;100.00;102005.69;5053628;28;20044;-48
2023/07/18 03:54:53;;;;;;;0.00;0.00;;;;;;;14.86;100.00;102002.97;5053245;28;20135;-45
2023/07/18 03:57:19;;;;;;;0.00;0.00;;;;;;;14.86;100.00;102011.13;5052637;28;20045;-47
2023/07/18 03:59:44;;;;;;;0.00;0.00;;;;;;;14.88;100.00;102012.63;5052658;28;20044;-48
2023/07/18 04:02:09;;;;;;;0.00;0.00;;;;;;;14.87;100.00;102010.06;5052369;28;20487;-50
2023/07/18 04:04:35;;;;;;;0.00;0.00;;;;;;;14.84;100.00;102010.44;5052601;28;20037;-50
2023/07/18 04:07:00;;;;;;;0.00;0.00;;;;;;;14.83;100.00;102008.78;5052384;28;20202;-50
2023/07/18 04:09:25;;;;;;;0.00;0.00;;;;;;;14.77;100.00;102004.06;5052379;28;20048;-49
2023/07/18 04:11:51;;;;;;;0.00;0.00;;;;;;;14.73;100.00;102016.28;5051995;28;20032;-45
2023/07/18 04:14:16;;;;;;;0.00;0.00;;;;;;;14.70;100.00;102010.22;5052221;28;20429;-47
2023/07/18 04:16:42;;;;;;;0.00;0.00;;;;;;;14.68;100.00;102009.53;5053065;28;20115;-45
2023/07/18 04:19:08;;;;;;;0.00;0.00;;;;;;;14.68;100.00;102006.81;5054547;28;20032;-46
2023/07/18 04:21:34;;;;;;;0.00;0.00;;;;;;;14.66;100.00;102011.56;5053437;28;20142;-47
2023/07/18 04:23:59;;;;;;;0.00;0.00;;;;;;;14.64;100.00;102008.22;5052044;28;20484;-46
2023/07/18 04:26:25;;;;;;;0.00;0.00;;;;;;;14.63;100.00;102006.53;5051818;28;20024;-50
2023/07/18 04:28:50;;;;;;;0.00;0.00;;;;;;;14.71;100.00;102011.88;5053169;28;20021;-48
2023/07/18 04:31:16;;;;;;;0.00;0.00;;;;;;;14.69;100.00;102008.53;5053008;28;20025;-47
2023/07/18 04:33:41;;;;;;;0.00;0.00;;;;;;;14.79;100.00;102004.72;5053326;28;20478;-46
2023/07/18 04:36:07;;;;;;;0.00;0.00;;;;;;;14.77;100.00;102001.34;5053669;28;20052;-45
2023/07/18 04:38:34;;;;;;;0.00;0.00;;;;;;;14.80;100.00;101992.88;5053551;28;20048;-48
2023/07/18 04:40:59;;;;;;;0.00;0.00;;;;;;;14.76;100.00;101994.25;5052671;28;20096;-46
2023/07/18 04:43:25;;;;;;;0.00;0.00;;;;;;;14.79;100.00;101989.28;5053090;28;20052;-46
2023/07/18 04:45:50;;;;;;;0.00;0.00;;;;;;;14.91;100.00;101990.56;5050850;28;20066;-49
2023/07/18 04:48:17;;;;;;;0.00;0.00;;;;;;;14.96;100.00;101981.88;5052245;28;20029;-47
2023/07/18 04:50:45;;;;;;;0.00;0.00;;;;;;;14.96;100.00;101981.88;5051607;28;20029;-47
2023/07/18 04:53:11;;;;;;;0.00;0.00;;;;;;;14.97;100.00;101983.56;5051737;28;20275;-50
2023/07/18 04:55:37;;;;;;;0.00;0.00;;;;;;;14.95;100.00;101977.47;5051929;28;20079;-49
2023/07/18 04:58:04;;;;;;;0.00;0.00;;;;;;;15.07;100.00;101967.88;5051626;28;20041;-46
2023/07/18 05:00:33;;;;;;;0.00;0.00;;;;;;;15.24;100.00;101978.56;5051547;28;20109;-47
2023/07/18 05:02:59;;;;;;;0.00;0.00;;;;;;;15.27;100.00;101970.06;5051518;28;20028;-48
2023/07/18 05:05:25;;;;;;;0.00;0.00;;;;;;;15.32;100.00;101963.06;5051564;28;20031;-47
2023/07/18 05:07:51;;;;;;;0.00;0.00;;;;;;;15.27;100.00;101961.91;5051943;28;20017;-48
2023/07/18 05:10:16;;;;;;;0.00;0.00;;;;;;;15.27;100.00;101961.91;5052060;28;20339;-50
2023/07/18 05:12:41;;;;;;;0.00;0.00;;;;;;;15.29;100.00;101966.13;5051057;28;20048;-48
2023/07/18 05:15:07;;;;;;;0.00;0.00;;;;;;;15.26;100.00;101968.38;5051035;28;20340;-48
2023/07/18 05:17:33;;;;;;;0.00;0.00;;;;;;;15.23;100.00;101968.75;5050950;28;20569;-47
2023/07/18 05:19:59;;;;;;;0.00;0.00;;;;;;;15.16;100.00;101965.91;5051118;28;20498;-45
2023/07/18 05:22:24;;;;;;;0.00;0.00;;;;;;;15.27;100.00;101978.19;5051201;28;20025;-46
2023/07/18 05:24:49;;;;;;;0.00;0.00;;;;;;;15.28;100.00;101980.72;5051201;28;20029;-50
2023/07/18 05:27:15;;;;;;;0.00;0.00;;;;;;;15.30;100.00;101978.69;5051472;28;20032;-49
2023/07/18 05:29:40;;;;;;;0.00;0.00;;;;;;;15.29;100.00;101976.13;5050996;28;20067;-51
2023/07/18 05:32:06;;;;;;;0.00;0.00;;;;;;;15.39;100.00;101979.44;5050914;28;20087;-49
2023/07/18 05:34:34;;;;;;;0.00;0.00;;;;;;;15.44;100.00;101974.28;5051049;28;20490;-48
2023/07/18 05:37:00;;;;;;;0.00;0.00;;;;;;;15.53;100.00;101984.03;5050835;28;20029;-53
2023/07/18 05:39:27;;;;;;;0.00;0.00;;;;;;;15.79;100.00;101983.56;5050506;28;20379;-47
2023/07/18 05:41:54;;;;;;;0.00;0.00;;;;;;;15.84;100.00;101983.00;5050481;28;20063;-49
2023/07/18 05:44:19;;;;;;;0.00;0.00;;;;;;;15.83;100.00;101983.22;5052141;28;20033;-46
2023/07/18 05:46:44;;;;;;;0.00;0.00;;;;;;;15.77;100.00;101990.19;5052499;28;20017;-48
2023/07/18 05:49:10;;;;;;;0.00;0.00;;;;;;;15.93;100.00;101992.75;5052432;28;20060;-47
2023/07/18 05:51:35;;;;;;;0.00;0.00;;;;;;;16.09;100.00;101993.53;5051500;28;20483;-47
2023/07/18 05:54:00;;;;;;;0.00;0.00;;;;;;;16.21;100.00;101983.88;5054975;28;20108;-47
2023/07/18 05:56:26;;;;;;;0.00;0.00;;;;;;;16.19;100.00;101989.50;5054803;28;20064;-47
2023/07/18 05:58:51;;;;;;;0.00;0.00;;;;;;;16.28;100.00;101984.78;5054841;28;20471;-47
2023/07/18 06:01:17;;;;;;;0.00;0.00;;;;;;;16.13;100.00;101990.25;5054947;28;20111;-46
2023/07/18 06:03:42;;;;;;;0.00;0.00;;;;;;;16.36;100.00;101984.66;5054522;28;20514;-48
2023/07/18 06:06:08;;;;;;;0.00;0.00;;;;;;;16.36;100.00;101981.13;5053239;28;20111;-46
2023/07/18 06:08:33;;;;;;;0.00;0.00;;;;;;;16.31;100.00;101992.56;5054616;28;20083;-47
2023/07/18 06:10:58;;;;;;;0.00;0.00;;;;;;;16.29;100.00;101991.91;5054613;28;20028;-50
2023/07/18 06:13:25;;;;;;;0.00;0.00;;;;;;;16.27;100.00;101993.97;5054005;28;20426;-47
2023/07/18 06:15:50;;;;;;;0.00;0.00;;;;;;;16.41;100.00;102003.13;5054596;28;20025;-50
2023/07/18 06:18:16;;;;;;;0.00;0.00;;;;;;;16.40;100.00;102002.28;5054072;28;20021;-50
2023/07/18 06:20:43;;;;;;;0.00;0.00;;;;;;;16.41;100.00;102003.97;5054280;28;20399;-47
2023/07/18 06:23:09;;;;;;;0.00;0.00;;;;;;;16.63;100.00;102009.41;5054288;28;20025;-47
2023/07/18 06:25:35;;;;;;;0.00;0.00;;;;;;;16.88;100.00;102016.19;5054202;28;20108;-46
2023/07/18 06:28:02;;;;;;;0.00;0.00;;;;;;;17.08;100.00;102010.06;5054032;28;20048;-46
2023/07/18 06:30:27;;;;;;;0.00;0.00;;;;;;;17.19;100.00;102000.50;5054072;28;20028;-50
2023/07/18 06:32:52;;;;;;;0.00;0.00;;;;;;;16.97;100.00;102007.88;5054108;28;20112;-49
2023/07/18 06:35:18;;;;;;;0.00;0.00;;;;;;;17.01;100.00;102014.59;5053999;28;20029;-51
2023/07/18 06:37:43;;;;;;;0.00;0.00;;;;;;;17.10;100.00;102018.88;5054039;28;20112;-47
2023/07/18 06:40:11;;;;;;;0.00;0.00;;;;;;;17.00;100.00;102008.31;5054106;28;20506;-47
2023/07/18 06:42:36;;;;;;;;;;;;;;;16.98;100.00;102015.00;5053814;28;20029;-50
2023/07/18 06:45:03;;;;;;;0.00;0.00;;;;;;;16.97;100.00;102013.31;5053799;28;19913;-50
2023/07/18 06:47:29;;;;;;;0.00;0.00;;;;;;;16.99;100.00;102008.53;5052249;28;20023;-48
2023/07/18 06:49:54;;;;;;;0.00;0.00;;;;;;;17.04;100.00;102025.09;5052433;28;20140;-50
2023/07/18 06:52:20;;;;;;;0.08;0.00;;;;;;;17.01;100.00;102014.59;5053422;28;20120;-47
2023/07/18 06:54:46;;;;;;;0.00;0.00;;;;;;;16.87;100.00;102014.47;5053687;28;20083;-50
2023/07/18 06:57:14;;;;;;;0.00;0.00;;;;;;;16.77;100.00;102022.16;5053215;28;20052;-46
2023/07/18 06:59:40;;;;;;;0.00;0.00;;;;;;;16.72;100.00;102021.84;5053694;28;20025;-50
2023/07/18 07:02:05;;;;;;;0.00;0.00;;;;;;;16.74;100.00;102019.75;5053616;28;20047;-50
2023/07/18 07:04:31;;;;;;;0.05;0.00;;;;;;;16.76;100.00;102016.84;5052779;28;20233;-46
2023/07/18 07:06:56;;;;;;;0.00;0.00;;;;;;;16.79;100.00;102011.06;5053526;28;20047;-46
2023/07/18 07:09:22;;;;;;;0.00;0.00;;;;;;;16.85;100.00;102013.84;5053638;28;20063;-48
2023/07/18 07:11:47;;;;;;;0.00;0.00;;;;;;;16.95;100.00;102009.94;5053083;28;20275;-45
2023/07/18 07:14:13;;;;;;;0.00;0.00;;;;;;;17.16;100.00;102001.75;5054434;28;20056;-48
2023/07/18 07:16:39;;;;;;;0.00;0.00;;;;;;;17.28;100.00;102005.63;5052714;28;20028;-46
2023/07/18 07:19:05;;;;;;;0.00;0.00;;;;;;;17.41;100.00;101987.72;5053797;28;20074;-47
2023/07/18 07:21:31;;;;;;;0.00;0.00;;;;;;;17.46;100.00;101993.41;5051628;28;20096;-49
2023/07/18 07:23:56;;;;;;;0.00;0.00;;;;;;;17.52;100.00;101989.88;5052936;28;20404;-46
2023/07/18 07:26:21;;;;;;;0.00;0.00;;;;;;;17.60;100.00;101981.53;5053250;28;20028;-47
2023/07/18 07:28:47;;;;;;;0.00;0.00;;;;;;;18.05;100.00;101987.44;5052708;28;20070;-54
2023/07/18 07:31:14;;;;;;;0.00;0.00;;;;;;;18.42;100.00;101974.34;5052993;28;20033;-47
2023/07/18 07:33:40;;;;;;;0.00;0.00;;;;;;;18.55;100.00;101976.25;5053037;28;20424;-48
2023/07/18 07:36:05;;;;;;;0.00;0.00;;;;;;;18.94;100.00;101970.03;5052906;28;20037;-46
2023/07/18 07:38:30;;;;;;;0.00;0.00;;;;;;;19.63;100.00;101965.09;5052585;28;20394;-49
2023/07/18 07:40:56;;;;;;;0.00;0.00;;;;;;;20.45;100.00;101948.94;5051001;28;20021;-48
2023/07/18 07:43:21;;;;;;;0.00;0.00;;;;;;;21.04;100.00;101943.03;5052465;28;20467;-48
2023/07/18 07:45:46;;;;;;;0.00;0.00;;;;;;;21.13;100.00;101938.09;5052631;28;20036;-49
2023/07/18 07:48:12;;;;;;;0.00;0.00;;;;;;;21.35;100.00;101934.94;5051140;28;20056;-50
2023/07/18 07:50:37;;;;;;;0.00;0.00;;;;;;;20.81;100.00;101940.91;5052222;28;20391;-51
2023/07/18 07:53:03;;;;;;;0.00;0.00;;;;;;;20.95;100.00;101940.81;5048776;28;20033;-47
2023/07/18 07:55:28;;;;;;;0.00;0.00;;;;;;;20.96;100.00;101943.31;5032778;28;20037;-47
2023/07/18 07:57:53;;;;;;;0.00;0.00;;;;;;;20.76;100.00;101932.53;5032150;28;20102;-48
2023/07/18 08:00:19;;;;;;;0.00;0.00;;;;;;;21.52;100.00;101933.31;5031066;28;20041;-44
2023/07/18 08:02:45;;;;;;;0.00;0.00;;;;;;;22.38;100.00;101927.75;5032955;28;20025;-48
2023/07/18 08:05:10;;;;;;;0.00;0.00;;;;;;;22.38;100.00;101920.38;5031579;28;20037;-46
2023/07/18 08:07:36;;;;;;;0.00;0.00;;;;;;;23.10;100.00;101919.41;5032864;28;20040;-47
2023/07/18 08:10:02;;;;;;;0.00;0.00;;;;;;;23.61;100.00;101928.75;5032452;28;20783;-48
2023/07/18 08:12:28;;;;;;;0.00;0.00;;;;;;;23.38;100.00;101924.13;5032411;28;20507;-52
2023/07/18 08:14:53;;;;;;;0.00;0.00;;;;;;;23.05;100.00;101928.34;5031406;28;20032;-51
2023/07/18 08:17:19;;;;;;;0.00;0.00;;;;;;;22.61;100.00;101926.97;5032341;28;20437;-48
2023/07/18 08:19:44;;;;;;;0.00;0.00;;;;;;;22.85;100.00;101920.44;5031925;28;20033;-48
2023/07/18 08:22:10;;;;;;;0.00;0.00;;;;;;;23.45;100.00;101920.19;5031818;28;20025;-47
2023/07/18 08:24:35;;;;;;;0.00;0.00;;;;;;;23.22;100.00;101925.72;5031795;28;20028;-47
2023/07/18 08:27:00;;;;;;;0.00;0.00;;;;;;;22.76;100.00;101922.69;5031825;28;20411;-48
2023/07/18 08:29:27;;;;;;;0.00;0.00;;;;;;;22.98;100.00;101927.63;5031516;28;20063;-47
2023/07/18 08:31:55;;;;;;;0.00;0.00;;;;;;;22.66;100.00;101930.69;5031733;28;20033;-49
2023/07/18 08:34:21;;;;;;;0.00;0.00;;;;;;;22.61;100.00;101926.97;5031577;28;20041;-51
2023/07/18 08:36:47;;;;;;;0.00;0.00;;;;;;;22.66;100.00;101914.22;5031742;28;20055;-49
2023/07/18 08:39:16;;;;;;;0.00;0.00;;;;;;;22.48;100.00;101914.31;5031618;28;20025;-50
2023/07/18 08:41:46;;;;;;;0.00;0.00;;;;;;;22.73;100.00;101919.59;5031763;28;20022;-48
2023/07/18 08:44:13;;;;;;;0.00;0.00;;;;;;;22.23;100.00;101909.84;5032910;28;20029;-47
2023/07/18 08:46:42;;;;;;;0.00;0.00;;;;;;;22.96;100.00;101910.53;5031961;28;20448;-45
2023/07/18 08:49:12;;;;;;;0.00;0.00;;;;;;;22.91;100.00;101911.25;5031866;28;20048;-50
2023/07/18 08:51:37;;;;;;;0.00;0.00;;;;;;;23.09;100.00;101901.25;5031697;28;20022;-46
2023/07/18 08:54:03;;;;;;;0.00;0.00;;;;;;;22.67;100.00;101904.94;5031969;28;20040;-49
2023/07/18 08:56:28;;;;;;;0.00;0.00;;;;;;;22.25;100.00;101918.66;5031313;28;20436;-46
2023/07/18 08:58:55;;;;;;;0.00;0.00;;;;;;;21.70;100.00;101914.13;5031816;28;20076;-50
2023/07/18 09:01:20;;;;;;;0.20;0.00;;;;;;;21.72;100.00;101907.56;5031253;28;20109;-48
2023/07/18 09:03:46;;;;;;;0.00;0.00;;;;;;;22.54;100.00;101903.22;5031531;28;20105;-48
2023/07/18 09:06:20;;;;;;;0.00;0.00;;;;;;;23.31;100.00;101898.72;5031256;28;20103;-50
2023/07/18 09:08:46;;;;;;;0.00;0.00;;;;;;;23.67;100.00;101894.78;5031373;28;20033;-46
2023/07/18 09:11:14;;;;;;;0.00;0.00;;;;;;;23.91;100.00;101892.00;5046465;28;20487;-47
2023/07/18 09:13:41;;;;;;;0.00;0.00;;;;;;;24.52;100.00;101893.13;5031212;28;20055;-50
2023/07/18 09:16:13;;;;;;;0.00;0.00;;;;;;;23.58;100.00;101890.78;5030858;28;20379;-49
2023/07/18 09:18:43;;;;;;;0.00;0.00;;;;;;;23.26;100.00;101891.22;5031115;28;20092;-50
2023/07/18 09:21:10;;;;;;;0.00;0.00;;;;;;;23.04;100.00;101879.16;5046286;28;20035;-47
2023/07/18 09:23:42;;;;;;;0.00;0.00;;;;;;;23.15;100.00;101883.81;5031268;28;20514;-48
2023/07/18 09:26:10;;;;;;;0.00;0.00;;;;;;;23.33;100.00;101886.44;5030923;28;20026;-47
2023/07/18 09:28:36;;;;;;;0.00;0.00;;;;;;;23.63;100.00;101888.13;5031141;28;20088;-47
2023/07/18 09:31:01;;;;;;;0.00;0.00;;;;;;;23.52;100.00;101883.50;5030880;28;20476;-48
2023/07/18 09:33:26;;;;;;;0.00;0.00;;;;;;;23.29;100.00;101879.72;5030863;28;20052;-51
2023/07/18 09:35:56;;;;;;;0.00;0.00;;;;;;;23.69;100.00;101875.31;5029375;28;20104;-51
2023/07/18 09:38:22;;;;;;;0.00;0.00;;;;;;;24.26;100.00;101867.91;5030919;28;20029;-47
2023/07/18 09:40:47;;;;;;;0.00;0.00;;;;;;;23.92;100.00;101872.50;5029146;28;20079;-47
2023/07/18 09:43:13;;;;;;;0.00;0.00;;;;;;;23.55;100.00;101870.09;5030708;28;20033;-51
2023/07/18 09:45:38;;;;;;;0.00;0.00;;;;;;;23.75;100.00;101869.72;5029310;28;20026;-46
2023/07/18 09:48:05;;;;;;;0.00;0.00;;;;;;;24.26;100.00;101872.56;5029535;28;20443;-47
2023/07/18 09:50:31;;;;;;;;;;;;;;;24.97;100.00;101875.66;5031485;28;20033;-44
2023/07/18 09:52:57;;;;;;;0.00;0.00;;;;;;;25.09;100.00;101870.88;5013523;28;20304;-48
2023/07/18 09:55:27;;;;;;;0.00;0.00;;;;;;;24.18;100.00;101870.22;5030750;28;20066;-45
2023/07/18 09:57:55;;;;;;;0.00;0.00;;;;;;;23.70;100.00;101874.22;5030382;28;20073;-45
2023/07/18 10:00:22;;;;;;;0.00;0.00;;;;;;;23.58;100.00;101866.88;5030492;28;20053;-47
2023/07/18 10:02:48;;;;;;;0.00;0.00;;;;;;;23.53;100.00;101863.19;5045900;28;20080;-48
2023/07/18 10:05:15;;;;;;;0.00;0.00;;;;;;;23.46;100.00;101863.34;5030576;28;20077;-46
2023/07/18 10:07:41;;;;;;;0.00;0.00;;;;;;;23.70;100.00;101858.59;5031061;28;20380;-49
2023/07/18 10:10:08;;;;;;;0.00;0.00;;;;;;;23.72;100.00;101848.19;5029653;28;20025;-47
2023/07/18 10:12:56;;;;;;;0.00;0.00;;;;;;;24.59;100.00;101848.91;5031175;28;20033;-45
2023/07/18 10:15:22;;;;;;;0.00;0.00;;;;;;;25.03;100.00;101844.34;5031140;28;20041;-47
2023/07/18 10:17:47;;;;;;;0.00;0.00;;;;;;;24.92;98.33;101837.84;5030739;28;20018;-48
2023/07/18 10:20:22;;;;;;;0.00;0.00;;;;;;;25.75;92.37;101835.06;5030716;28;20073;-48
2023/07/18 10:22:57;;;;;;;0.00;0.00;;;;;;;25.94;90.72;101840.22;5030376;28;20100;-46
2023/07/18 10:25:23;;;;;;;0.00;0.00;;;;;;;26.06;90.27;101830.66;5030464;28;20151;-49
2023/07/18 10:27:49;;;;;;;0.00;0.00;;;;;;;26.14;87.26;101831.28;5030903;28;20034;-48
2023/07/18 10:30:17;;;;;;;0.00;0.00;;;;;;;26.39;87.11;101822.41;5030329;28;20029;-47
2023/07/18 10:32:49;;;;;;;0.00;0.00;;;;;;;26.34;83.95;101820.44;5030385;28;20033;-46
2023/07/18 10:35:16;;;;;;;0.00;0.00;;;;;;;26.01;84.40;101813.25;5030175;28;20041;-46
2023/07/18 10:37:49;;;;;;;0.00;0.00;;;;;;;25.77;86.02;101809.97;5030342;28;20613;-49
2023/07/18 10:40:31;;;;;;;0.00;0.00;;;;;;;25.82;89.34;101823.78;5034112;28;20033;-49
2023/07/18 10:42:57;;;;;;;0.00;0.00;;;;;;;25.71;87.79;101819.28;5033932;28;20116;-51
2023/07/18 10:45:22;;;;;;;0.00;0.00;;;;;;;26.15;87.44;101824.69;5033919;28;20529;-49
2023/07/18 10:47:47;;;;;;;0.00;0.00;;;;;;;26.73;84.18;101822.94;5033679;28;20022;-46
2023/07/18 10:50:13;;;;;;;0.00;0.00;;;;;;;26.88;81.85;101820.28;5033785;28;20037;-50
2023/07/18 10:52:40;;;;;;;0.00;0.00;;;;;;;26.83;83.04;101814.72;5033701;28;20112;-48
2023/07/18 10:55:06;;;;;;;0.00;0.00;;;;;;;26.59;82.69;101821.75;5032668;28;20025;-48
2023/07/18 10:57:37;;;;;;;0.00;0.00;;;;;;;26.22;84.28;101819.78;5033733;28;20056;-49
2023/07/18 11:00:05;;;;;;;0.00;0.00;;;;;;;25.68;88.36;101806.03;5034054;28;20450;-48
2023/07/18 11:02:44;;;;;;;0.00;0.00;;;;;;;25.70;87.42;101798.28;5033133;28;20043;-51
2023/07/18 11:05:11;;;;;;;0.00;0.00;;;;;;;26.17;86.27;101798.50;5033318;28;20061;-51
2023/07/18 11:07:39;;;;;;;0.00;0.00;;;;;;;26.79;84.56;101802.53;5033519;28;20026;-48
2023/07/18 11:10:06;;;;;;;0.00;0.00;;;;;;;27.27;85.18;101806.09;5033710;28;20021;-45
2023/07/18 11:12:31;;;;;;;0.00;0.00;;;;;;;27.58;82.76;101806.19;5032923;28;20441;-47
2023/07/18 11:14:57;;;;;;;0.00;0.00;;;;;;;27.78;80.97;101802.66;5048389;28;20117;-46